createdAt,value
2023-02-14T00:01:32.106Z,99912.78
2023-02-14T00:04:02.107Z,99917.78
2023-02-14T00:06:35.621Z,99912.13
2023-02-14T00:09:06.166Z,99901.63
2023-02-14T00:11:36.632Z,99903.34
2023-02-14T00:14:19.663Z,99906.22
2023-02-14T00:16:49.923Z,99901.22
2023-02-14T00:19:22.555Z,99906.81
2023-02-14T00:21:55.370Z,99896.59
2023-02-14T00:24:27.994Z,99909.13
2023-02-14T00:26:58.427Z,99910.22
2023-02-14T00:29:31.137Z,99904.84
2023-02-14T00:32:01.448Z,99907.72
2023-02-14T00:34:33.410Z,99909.72
2023-02-14T00:37:06.454Z,99900.00
2023-02-14T00:39:36.386Z,99907.53
2023-02-14T00:42:09.457Z,99908.72
2023-02-14T00:44:39.456Z,99902.13
2023-02-14T00:47:09.886Z,99900.69
2023-02-14T00:49:39.936Z,99904.84
2023-02-14T00:52:12.557Z,99905.88
2023-02-14T00:54:42.519Z,99905.16
2023-02-14T00:57:12.507Z,99908.09
2023-02-14T00:59:42.447Z,99913.91
2023-02-14T01:02:12.454Z,99907.84
2023-02-14T01:04:42.432Z,99908.22
2023-02-14T01:07:15.022Z,99907.53
2023-02-14T01:09:45.348Z,99910.22
2023-02-14T01:12:15.310Z,99912.81
2023-02-14T01:14:45.725Z,99908.97
2023-02-14T01:17:15.713Z,99915.44
2023-02-14T01:19:45.775Z,99914.69
2023-02-14T01:22:18.450Z,99908.34
2023-02-14T01:24:48.674Z,99907.56
2023-02-14T01:27:18.648Z,99904.56
2023-02-14T01:29:50.060Z,99900.34
2023-02-14T01:32:22.189Z,99905.72
2023-02-14T01:34:53.663Z,99905.06
2023-02-14T01:37:26.453Z,99902.59
2023-02-14T01:39:56.696Z,99900.88
2023-02-14T01:42:26.696Z,99904.56
2023-02-14T01:45:04.267Z,99897.44
2023-02-14T01:47:41.628Z,99900.91
2023-02-14T01:50:17.412Z,99895.38
2023-02-14T01:52:53.709Z,99891.47
2023-02-14T01:55:31.164Z,99889.22
2023-02-14T01:58:07.616Z,99893.47
2023-02-14T02:00:52.169Z,99893.47
2023-02-14T02:03:24.648Z,99900.53
2023-02-14T02:06:06.224Z,99897.25
2023-02-14T02:08:45.862Z,99888.91
2023-02-14T02:11:15.955Z,99889.63
2023-02-14T02:13:45.914Z,99888.69
2023-02-14T02:16:53.744Z,99888.06
2023-02-14T02:20:28.683Z,99885.66
2023-02-14T02:23:53.617Z,99885.66
2023-02-14T02:27:01.727Z,99870.66
2023-02-14T02:30:22.494Z,99873.31
2023-02-14T02:33:44.388Z,99880.91
2023-02-14T02:36:43.791Z,99889.38
2023-02-14T02:39:32.825Z,99890.63
2023-02-14T02:42:19.195Z,99887.72
2023-02-14T02:45:04.623Z,99885.91
2023-02-14T02:47:41.718Z,99889.81
2023-02-14T02:50:38.534Z,99889.44
2023-02-14T02:53:23.810Z,99889.44
2023-02-14T02:56:14.577Z,99883.66
2023-02-14T02:58:52.084Z,99880.78
2023-02-14T03:01:27.300Z,99881.53
2023-02-14T03:04:17.937Z,99881.81
2023-02-14T03:06:48.419Z,99880.59
2023-02-14T03:09:59.849Z,99883.94
2023-02-14T03:13:34.921Z,99879.16
2023-02-14T03:16:36.732Z,99882.03
2023-02-14T03:20:02.441Z,99887.91
2023-02-14T03:22:51.590Z,99893.81
2023-02-14T03:25:43.235Z,99889.84
2023-02-14T03:28:22.722Z,99891.00
2023-02-14T03:31:05.045Z,99886.97
2023-02-14T03:33:46.361Z,99885.38
2023-02-14T03:36:23.765Z,99892.06
2023-02-14T03:39:02.786Z,99883.81
2023-02-14T03:41:45.365Z,99881.75
2023-02-14T03:44:22.537Z,99878.91
2023-02-14T03:46:59.045Z,99880.00
2023-02-14T03:49:36.291Z,99883.50
2023-02-14T03:52:10.288Z,99880.16
2023-02-14T03:54:40.949Z,99883.50
2023-02-14T03:57:22.620Z,99884.94
2023-02-14T03:59:53.547Z,99872.25
2023-02-14T04:02:30.758Z,99868.09
2023-02-14T04:05:04.372Z,99874.44
2023-02-14T04:07:34.341Z,99876.53
2023-02-14T04:10:04.308Z,99867.19
2023-02-14T04:12:38.188Z,99870.81
2023-02-14T04:15:10.402Z,99868.53
2023-02-14T04:18:05.086Z,99870.50
2023-02-14T04:20:35.000Z,99869.16
2023-02-14T04:23:04.946Z,99874.84
2023-02-14T04:25:34.915Z,99864.94
2023-02-14T04:28:07.999Z,99872.47
2023-02-14T04:30:37.956Z,99862.72
2023-02-14T04:33:08.325Z,99865.25
2023-02-14T04:35:38.354Z,99865.75
2023-02-14T04:38:09.016Z,99864.78
2023-02-14T04:40:39.035Z,99860.34
2023-02-14T04:43:11.580Z,99860.22
2023-02-14T04:45:41.545Z,99861.66
2023-02-14T04:48:11.564Z,99865.22
2023-02-14T04:50:41.694Z,99864.66
2023-02-14T04:53:11.673Z,99864.22
2023-02-14T04:55:41.681Z,99863.66
2023-02-14T04:58:14.189Z,99860.53
2023-02-14T05:00:44.235Z,99855.78
2023-02-14T05:03:14.285Z,99856.31
2023-02-14T05:05:44.207Z,99862.00
2023-02-14T05:08:14.465Z,99863.91
2023-02-14T05:10:45.220Z,99859.06
2023-02-14T05:13:18.160Z,99866.94
2023-02-14T05:15:48.626Z,99857.09
2023-02-14T05:18:18.571Z,99862.78
2023-02-14T05:20:48.546Z,99860.59
2023-02-14T05:23:18.656Z,99860.50
2023-02-14T05:25:51.786Z,99868.00
2023-02-14T05:28:24.373Z,99863.25
2023-02-14T05:30:56.919Z,99857.66
2023-02-14T05:33:27.466Z,99856.13
2023-02-14T05:35:57.420Z,99854.78
2023-02-14T05:38:27.366Z,99856.41
2023-02-14T05:40:57.928Z,99854.97
2023-02-14T05:43:30.868Z,99854.63
2023-02-14T05:46:01.353Z,99866.44
2023-02-14T05:48:31.376Z,99871.16
2023-02-14T05:51:07.386Z,99879.59
2023-02-14T05:53:38.390Z,99872.94
2023-02-14T05:56:09.429Z,99870.56
2023-02-14T05:58:41.972Z,99870.06
2023-02-14T06:01:11.900Z,99870.81
2023-02-14T06:03:41.836Z,99868.22
2023-02-14T06:06:11.796Z,99876.78
2023-02-14T06:08:41.807Z,99874.75
2023-02-14T06:11:11.792Z,99875.56
2023-02-14T06:13:44.355Z,99881.44
2023-02-14T06:16:14.334Z,99884.75
2023-02-14T06:18:44.322Z,99885.81
2023-02-14T06:21:14.314Z,99885.63
2023-02-14T06:23:44.246Z,99888.41
2023-02-14T06:26:14.190Z,99887.78
2023-02-14T06:28:46.751Z,99883.16
2023-02-14T06:31:20.958Z,99881.16
2023-02-14T06:33:51.030Z,99882.53
2023-02-14T06:36:21.914Z,99888.69
2023-02-14T06:38:52.677Z,99884.59
2023-02-14T06:41:22.729Z,99888.75
2023-02-14T06:43:55.379Z,99888.34
2023-02-14T06:46:25.544Z,99893.31
2023-02-14T06:48:55.592Z,99898.00
2023-02-14T06:51:25.562Z,99896.41
2023-02-14T06:53:55.488Z,99893.81
2023-02-14T06:56:25.533Z,99895.94
2023-02-14T06:58:58.083Z,99894.13
2023-02-14T07:01:28.168Z,99899.09
2023-02-14T07:03:58.211Z,99898.38
2023-02-14T07:06:28.547Z,99893.69
2023-02-14T07:08:58.578Z,99899.56
2023-02-14T07:11:28.730Z,99895.38
2023-02-14T07:14:01.312Z,99886.09
2023-02-14T07:16:31.387Z,99890.44
2023-02-14T07:19:01.293Z,99887.63
2023-02-14T07:21:31.302Z,99894.50
2023-02-14T07:24:01.317Z,99898.66
2023-02-14T07:26:31.299Z,99897.41
2023-02-14T07:29:03.812Z,99898.16
2023-02-14T07:31:33.901Z,99893.69
2023-02-14T07:34:04.063Z,99896.66
2023-02-14T07:36:33.983Z,99891.66
2023-02-14T07:39:03.885Z,99887.22
2023-02-14T07:41:33.865Z,99887.22
2023-02-14T07:44:06.539Z,99884.25
2023-02-14T07:46:36.509Z,99890.25
2023-02-14T07:49:06.684Z,99888.97
2023-02-14T07:51:36.755Z,99886.09
2023-02-14T07:54:07.091Z,99890.44
2023-02-14T07:56:37.368Z,99888.78
2023-02-14T07:59:09.939Z,99882.63
2023-02-14T08:01:40.002Z,99887.03
2023-02-14T08:04:10.097Z,99892.56
2023-02-14T08:06:40.034Z,99880.81
2023-02-14T08:09:10.251Z,99877.69
2023-02-14T08:12:01.792Z,99883.22
2023-02-14T08:14:34.343Z,99887.75
2023-02-14T08:17:04.539Z,99883.81
2023-02-14T08:19:34.615Z,99874.41
2023-02-14T08:22:04.757Z,99874.94
2023-02-14T08:24:35.496Z,99878.44
2023-02-14T08:27:05.774Z,99878.34
2023-02-14T08:29:38.516Z,99883.72
2023-02-14T08:32:08.773Z,99889.47
2023-02-14T08:34:38.959Z,99886.09
2023-02-14T08:37:08.921Z,99890.59
2023-02-14T08:39:38.844Z,99890.19
2023-02-14T08:42:09.239Z,99887.69
2023-02-14T08:44:41.735Z,99883.56
2023-02-14T08:47:11.758Z,99880.47
2023-02-14T08:49:41.883Z,99877.56
2023-02-14T08:52:12.475Z,99878.25
2023-02-14T08:54:42.572Z,99864.34
2023-02-14T08:57:12.929Z,99861.94
2023-02-14T08:59:45.934Z,99866.63
2023-02-14T09:02:16.838Z,99871.97
2023-02-14T09:04:46.794Z,99872.16
2023-02-14T09:07:17.398Z,99866.44
2023-02-14T09:09:47.416Z,99867.34
2023-02-14T09:12:17.495Z,99867.75
2023-02-14T09:14:50.035Z,99862.63
2023-02-14T09:17:21.046Z,99858.59
2023-02-14T09:19:51.030Z,99865.22
2023-02-14T09:22:23.053Z,99852.72
2023-02-14T09:24:53.084Z,99852.09
2023-02-14T09:27:23.070Z,99857.22
2023-02-14T09:29:55.931Z,99846.34
2023-02-14T09:32:26.600Z,99855.06
2023-02-14T09:34:56.744Z,99848.34
2023-02-14T09:37:39.333Z,99853.56
2023-02-14T09:40:11.498Z,99841.75
2023-02-14T09:42:58.420Z,99843.03
2023-02-14T09:45:36.008Z,99839.44
2023-02-14T09:48:13.494Z,99836.22
2023-02-14T09:50:50.041Z,99841.50
2023-02-14T09:53:28.182Z,99843.22
2023-02-14T09:56:12.912Z,99842.78
2023-02-14T09:58:55.968Z,99835.50
2023-02-14T10:01:35.683Z,99838.63
2023-02-14T10:04:23.854Z,99836.22
2023-02-14T10:07:00.068Z,99828.47
2023-02-14T10:10:05.014Z,99831.31
2023-02-14T10:12:42.765Z,99834.97
2023-02-14T10:15:21.937Z,99831.59
2023-02-14T10:18:00.861Z,99828.44
2023-02-14T10:20:35.028Z,99825.69
2023-02-14T10:23:14.534Z,99816.28
2023-02-14T10:25:55.765Z,99818.03
2023-02-14T10:28:34.360Z,99809.56
2023-02-14T10:31:24.144Z,99808.22
2023-02-14T10:34:04.231Z,99821.13
2023-02-14T10:37:03.411Z,99818.94
2023-02-14T10:40:08.470Z,99810.06
2023-02-14T10:42:53.326Z,99801.41
2023-02-14T10:45:34.664Z,99804.44
2023-02-14T10:48:19.352Z,99793.53
2023-02-14T10:51:03.646Z,99802.59
2023-02-14T10:53:50.433Z,99795.31
2023-02-14T10:56:27.009Z,99786.81
2023-02-14T10:59:00.486Z,99778.84
2023-02-14T11:01:31.992Z,99777.28
2023-02-14T11:04:08.747Z,99774.75
2023-02-14T11:06:41.411Z,99775.56
2023-02-14T11:09:13.674Z,99772.88
2023-02-14T11:11:51.253Z,99772.69
2023-02-14T11:14:32.414Z,99767.69
2023-02-14T11:17:22.771Z,99768.41
2023-02-14T11:20:02.510Z,99761.50
2023-02-14T11:22:37.314Z,99754.78
2023-02-14T11:25:10.338Z,99753.31
2023-02-14T11:27:40.799Z,99746.97
2023-02-14T11:30:25.074Z,99747.50
2023-02-14T11:32:56.397Z,99748.56
2023-02-14T11:35:34.543Z,99740.28
2023-02-14T11:38:24.597Z,99738.22
2023-02-14T11:41:00.209Z,99727.66
2023-02-14T11:43:36.596Z,99732.16
2023-02-14T11:46:51.068Z,99725.25
2023-02-14T11:49:33.323Z,99724.31
2023-02-14T11:52:12.468Z,99713.97
2023-02-14T11:54:48.393Z,99702.25
2023-02-14T11:57:28.804Z,99710.91
2023-02-14T12:00:01.863Z,99705.06
2023-02-14T12:02:46.597Z,99702.41
2023-02-14T12:05:23.866Z,99704.34
2023-02-14T12:07:57.045Z,99702.97
2023-02-14T12:10:32.401Z,99694.72
2023-02-14T12:13:06.188Z,99691.25
2023-02-14T12:15:40.910Z,99684.47
2023-02-14T12:18:51.578Z,99684.50
2023-02-14T12:21:46.953Z,99684.00
2023-02-14T12:24:29.017Z,99670.63
2023-02-14T12:27:17.299Z,99670.84
2023-02-14T12:29:54.029Z,99667.72
2023-02-14T12:32:28.308Z,99668.63
2023-02-14T12:35:06.257Z,99663.06
2023-02-14T12:38:04.772Z,99658.41
2023-02-14T12:40:51.909Z,99659.47
2023-02-14T12:43:50.870Z,99653.59
2023-02-14T12:47:05.740Z,99653.88
2023-02-14T12:50:17.222Z,99651.06
2023-02-14T12:53:22.970Z,99637.81
2023-02-14T12:56:06.607Z,99636.72
2023-02-14T12:58:57.434Z,99632.97
2023-02-14T13:02:22.870Z,99620.66
2023-02-14T13:05:06.402Z,99624.53
2023-02-14T13:08:03.371Z,99619.00
2023-02-14T13:10:52.679Z,99615.91
2023-02-14T13:13:39.894Z,99614.69
2023-02-14T13:16:25.467Z,99609.59
2023-02-14T13:19:05.432Z,99603.44
2023-02-14T13:21:41.269Z,99601.31
2023-02-14T13:24:22.513Z,99590.44
2023-02-14T13:26:59.262Z,99592.94
2023-02-14T13:29:39.684Z,99588.59
2023-02-14T13:32:18.339Z,99586.72
2023-02-14T13:34:51.754Z,99580.78
2023-02-14T13:37:27.510Z,99579.78
2023-02-14T13:40:02.477Z,99573.16
2023-02-14T13:43:00.131Z,99574.38
2023-02-14T13:45:58.334Z,99575.38
2023-02-14T13:48:32.237Z,99577.97
2023-02-14T13:51:04.756Z,99575.31
2023-02-14T13:53:44.140Z,99568.25
2023-02-14T13:56:37.660Z,99569.50
2023-02-14T13:59:09.185Z,99571.84
2023-02-14T14:01:48.063Z,99570.13
2023-02-14T14:04:40.307Z,99560.91
2023-02-14T14:07:30.155Z,99567.69
2023-02-14T14:10:09.001Z,99565.69
2023-02-14T14:12:48.004Z,99555.50
2023-02-14T14:15:27.315Z,99560.53
2023-02-14T14:18:34.564Z,99564.03
2023-02-14T14:21:19.286Z,99562.13
2023-02-14T14:24:20.271Z,99559.59
2023-02-14T14:26:53.277Z,99557.31
2023-02-14T14:29:28.488Z,99549.66
2023-02-14T14:31:59.079Z,99550.19
2023-02-14T14:34:31.146Z,99549.16
2023-02-14T14:37:10.848Z,99547.81
2023-02-14T14:39:41.055Z,99546.81
2023-02-14T14:42:17.588Z,99544.09
2023-02-14T14:44:52.906Z,99545.47
2023-02-14T14:47:27.162Z,99543.88
2023-02-14T14:50:07.427Z,99543.16
2023-02-14T14:52:45.693Z,99537.47
2023-02-14T14:55:23.876Z,99538.69
2023-02-14T14:57:57.623Z,99535.09
2023-02-14T15:00:33.422Z,99533.00
2023-02-14T15:03:09.415Z,99534.84
2023-02-14T15:05:42.096Z,99528.84
2023-02-14T15:08:25.570Z,99530.34
2023-02-14T15:11:02.542Z,99538.06
2023-02-14T15:13:49.647Z,99541.56
2023-02-14T15:16:27.786Z,99535.97
2023-02-14T15:19:03.597Z,99535.97
2023-02-14T15:21:34.764Z,99535.47
2023-02-14T15:24:08.603Z,99542.28
2023-02-14T15:26:39.212Z,99538.66
2023-02-14T15:29:10.309Z,99536.56
2023-02-14T15:31:44.001Z,99540.03
2023-02-14T15:34:16.320Z,99535.75
2023-02-14T15:36:49.097Z,99545.25
2023-02-14T15:39:25.487Z,99536.59
2023-02-14T15:41:58.204Z,99537.53
2023-02-14T15:44:29.801Z,99540.59
2023-02-14T15:47:05.611Z,99532.69
2023-02-14T15:49:41.280Z,99534.44
2023-02-14T15:52:16.863Z,99533.63
2023-02-14T15:54:51.037Z,99531.78
2023-02-14T15:57:29.702Z,99535.22
2023-02-14T15:59:59.985Z,99526.00
2023-02-14T16:02:38.002Z,99538.16
2023-02-14T16:05:18.453Z,99534.00
2023-02-14T16:08:03.561Z,99531.44
2023-02-14T16:10:38.584Z,99535.69
2023-02-14T16:13:21.358Z,99539.84
2023-02-14T16:16:02.133Z,99533.88
2023-02-14T16:18:40.036Z,99533.84
2023-02-14T16:21:17.095Z,99539.28
2023-02-14T16:23:49.117Z,99532.28
2023-02-14T16:26:21.761Z,99540.94
2023-02-14T16:28:51.720Z,99539.16
2023-02-14T16:31:22.334Z,99546.34
2023-02-14T16:33:52.488Z,99542.06
2023-02-14T16:36:28.807Z,99538.81
2023-02-14T16:39:00.088Z,99537.88
2023-02-14T16:41:35.872Z,99540.09
2023-02-14T16:44:06.988Z,99540.00
2023-02-14T16:46:39.100Z,99547.22
2023-02-14T16:49:10.563Z,99540.09
2023-02-14T16:51:42.723Z,99541.97
2023-02-14T16:54:20.555Z,99541.34
2023-02-14T16:56:59.646Z,99538.38
2023-02-14T16:59:30.016Z,99542.53
2023-02-14T17:02:02.282Z,99544.84
2023-02-14T17:04:32.362Z,99548.66
2023-02-14T17:07:06.849Z,99546.59
2023-02-14T17:09:44.268Z,99551.69
2023-02-14T17:12:23.570Z,99552.25
2023-02-14T17:15:01.368Z,99550.44
2023-02-14T17:17:32.752Z,99550.13
2023-02-14T17:20:03.930Z,99555.03
2023-02-14T17:22:34.537Z,99558.50
2023-02-14T17:25:05.409Z,99563.63
2023-02-14T17:27:38.636Z,99569.03
2023-02-14T17:30:10.978Z,99563.31
2023-02-14T17:32:41.019Z,99567.19
2023-02-14T17:35:12.114Z,99561.41
2023-02-14T17:37:42.105Z,99567.25
2023-02-14T17:40:14.620Z,99565.03
2023-02-14T17:42:47.343Z,99562.25
2023-02-14T17:45:17.336Z,99560.50
2023-02-14T17:47:47.486Z,99554.56
2023-02-14T17:50:18.554Z,99560.19
2023-02-14T17:52:48.477Z,99562.88
2023-02-14T17:55:18.832Z,99563.91
2023-02-14T17:57:52.561Z,99556.75
2023-02-14T18:00:26.538Z,99562.22
2023-02-14T18:02:56.548Z,99560.84
2023-02-14T18:05:26.607Z,99562.56
2023-02-14T18:07:56.536Z,99563.25
2023-02-14T18:10:26.895Z,99562.78
2023-02-14T18:12:59.497Z,99569.56
2023-02-14T18:15:29.665Z,99570.81
2023-02-14T18:17:59.618Z,99571.22
2023-02-14T18:20:29.562Z,99566.38
2023-02-14T18:22:59.486Z,99562.97
2023-02-14T18:25:29.426Z,99569.66
2023-02-14T18:28:02.035Z,99568.31
2023-02-14T18:30:32.227Z,99569.22
2023-02-14T18:33:02.146Z,99571.47
2023-02-14T18:35:32.132Z,99558.16
2023-02-14T18:38:02.103Z,99560.50
2023-02-14T18:40:32.098Z,99559.38
2023-02-14T18:43:05.119Z,99558.72
2023-02-14T18:45:39.836Z,99553.59
2023-02-14T18:48:09.941Z,99555.41
2023-02-14T18:50:40.008Z,99551.28
2023-02-14T18:53:09.982Z,99553.88
2023-02-14T18:55:40.929Z,99559.84
2023-02-14T18:58:13.691Z,99556.00
2023-02-14T19:00:43.674Z,99553.78
2023-02-14T19:03:13.631Z,99546.16
2023-02-14T19:05:43.619Z,99547.34
2023-02-14T19:08:13.587Z,99547.75
2023-02-14T19:10:43.566Z,99538.38
2023-02-14T19:13:16.083Z,99534.56
2023-02-14T19:15:47.611Z,99539.72
2023-02-14T19:18:17.712Z,99540.13
2023-02-14T19:20:48.439Z,99528.22
2023-02-14T19:23:21.388Z,99538.00
2023-02-14T19:25:51.355Z,99533.84
2023-02-14T19:28:24.356Z,99529.63
2023-02-14T19:30:54.356Z,99534.34
2023-02-14T19:33:24.436Z,99527.31
2023-02-14T19:36:03.455Z,99531.03
2023-02-14T19:38:33.519Z,99523.25
2023-02-14T19:41:03.555Z,99534.69
2023-02-14T19:43:36.156Z,99528.97
2023-02-14T19:46:07.561Z,99526.75
2023-02-14T19:48:37.636Z,99527.19
2023-02-14T19:51:08.170Z,99522.97
2023-02-14T19:53:38.469Z,99519.81
2023-02-14T19:56:08.641Z,99517.38
2023-02-14T19:58:43.753Z,99522.91
2023-02-14T20:01:26.605Z,99520.44
2023-02-14T20:03:57.301Z,99514.47
2023-02-14T20:06:29.554Z,99519.69
2023-02-14T20:09:00.415Z,99513.63
2023-02-14T20:11:35.672Z,99513.66
2023-02-14T20:14:09.686Z,99520.22
2023-02-14T20:16:40.783Z,99511.03
2023-02-14T20:19:16.284Z,99506.91
2023-02-14T20:21:48.156Z,99506.72
2023-02-14T20:24:21.246Z,99513.16
2023-02-14T20:26:52.840Z,99508.78
2023-02-14T20:29:27.357Z,99506.88
2023-02-14T20:32:03.657Z,99500.09
2023-02-14T20:34:33.962Z,99499.03
2023-02-14T20:37:04.109Z,99500.63
2023-02-14T20:39:37.263Z,99502.94
2023-02-14T20:42:10.000Z,99501.13
2023-02-14T20:44:42.846Z,99487.44
2023-02-14T20:47:13.092Z,99486.75
2023-02-14T20:49:44.780Z,99485.59
2023-02-14T20:52:18.005Z,99486.34
2023-02-14T20:54:48.018Z,99491.88
2023-02-14T20:57:18.001Z,99480.59
2023-02-14T20:59:50.660Z,99478.25
2023-02-14T21:02:20.657Z,99478.16
2023-02-14T21:04:50.585Z,99472.34
2023-02-14T21:07:20.685Z,99470.03
2023-02-14T21:09:50.668Z,99467.22
2023-02-14T21:12:20.710Z,99465.44
2023-02-14T21:14:53.508Z,99465.19
2023-02-14T21:17:23.480Z,99458.91
2023-02-14T21:19:53.420Z,99448.97
2023-02-14T21:22:23.422Z,99454.44
2023-02-14T21:24:53.548Z,99445.63
2023-02-14T21:27:23.549Z,99449.47
2023-02-14T21:29:56.173Z,99444.75
2023-02-14T21:32:28.446Z,99444.66
2023-02-14T21:34:58.702Z,99446.47
2023-02-14T21:37:28.685Z,99444.28
2023-02-14T21:39:58.602Z,99442.06
2023-02-14T21:42:28.539Z,99439.75
2023-02-14T21:45:13.615Z,99434.25
2023-02-14T21:48:03.662Z,99437.34
2023-02-14T21:50:31.047Z,99434.78
2023-02-14T21:53:01.458Z,99438.69
2023-02-14T21:55:31.469Z,99444.38
2023-02-14T21:58:01.534Z,99437.59
2023-02-14T22:00:34.238Z,99433.84
2023-02-14T22:03:05.192Z,99436.56
2023-02-14T22:05:35.206Z,99438.84
2023-02-14T22:08:05.207Z,99443.41
2023-02-14T22:10:35.223Z,99435.34
2023-02-14T22:13:05.159Z,99423.91
2023-02-14T22:15:40.161Z,99431.81
2023-02-14T22:18:10.266Z,99427.31
2023-02-14T22:20:40.330Z,99423.44
2023-02-14T22:23:11.481Z,99429.81
2023-02-14T22:25:41.417Z,99434.94
2023-02-14T22:28:12.065Z,99434.72
2023-02-14T22:30:44.748Z,99435.38
2023-02-14T22:33:14.723Z,99433.56
2023-02-14T22:35:44.830Z,99433.81
2023-02-14T22:38:14.899Z,99440.31
2023-02-14T22:40:44.935Z,99430.13
2023-02-14T22:43:15.032Z,99431.25
2023-02-14T22:45:47.919Z,99427.88
2023-02-14T22:48:18.780Z,99431.38
2023-02-14T22:50:48.799Z,99432.84
2023-02-14T22:53:18.838Z,99423.19
2023-02-14T22:55:48.824Z,99430.00
2023-02-14T22:58:18.881Z,99417.75
2023-02-14T23:00:51.476Z,99426.97
2023-02-14T23:03:21.440Z,99417.59
2023-02-14T23:05:51.449Z,99421.50
2023-02-14T23:08:21.589Z,99415.75
2023-02-14T23:10:51.617Z,99413.00
2023-02-14T23:13:34.240Z,99416.97
2023-02-14T23:16:19.577Z,99411.38
2023-02-14T23:19:02.177Z,99410.97
2023-02-14T23:21:44.675Z,99407.75
2023-02-14T23:24:14.659Z,99406.84
2023-02-14T23:26:44.725Z,99403.56
2023-02-14T23:29:14.830Z,99411.94
2023-02-14T23:31:47.689Z,99406.28
2023-02-14T23:34:17.925Z,99409.72
2023-02-14T23:36:48.604Z,99413.00
2023-02-14T23:39:18.793Z,99410.56
2023-02-14T23:41:51.796Z,99415.81
2023-02-14T23:44:24.765Z,99412.28
2023-02-14T23:47:00.508Z,99410.81
2023-02-14T23:49:31.099Z,99407.44
2023-02-14T23:52:01.602Z,99396.78
2023-02-14T23:54:31.868Z,99399.53
2023-02-14T23:57:02.044Z,99399.78
2023-02-14T23:59:32.364Z,99393.63
